createdAt,value
2023-04-21T00:00:24.232Z,6.29
2023-04-21T00:05:26.651Z,6.20
2023-04-21T00:10:27.350Z,6.13
2023-04-21T00:15:27.947Z,6.08
2023-04-21T00:20:30.597Z,6.02
2023-04-21T00:25:31.292Z,5.96
2023-04-21T00:30:31.908Z,5.94
2023-04-21T00:35:33.901Z,5.82
2023-04-21T00:40:34.853Z,5.77
2023-04-21T00:45:36.014Z,5.73
2023-04-21T00:50:38.154Z,5.63
2023-04-21T00:55:40.532Z,5.55
2023-04-21T01:00:42.998Z,5.51
2023-04-21T01:05:44.926Z,5.57
2023-04-21T01:10:45.901Z,5.50
2023-04-21T01:15:46.547Z,5.51
2023-04-21T01:20:50.016Z,5.47
2023-04-21T01:25:52.748Z,5.40
2023-04-21T01:30:54.138Z,5.34
2023-04-21T01:35:56.378Z,5.27
2023-04-21T01:40:58.385Z,5.22
2023-04-21T01:45:59.038Z,5.19
2023-04-21T01:50:59.658Z,5.15
2023-04-21T01:56:01.650Z,5.12
2023-04-21T02:01:04.945Z,5.08
2023-04-21T02:06:06.060Z,5.07
2023-04-21T02:11:08.351Z,5.03
2023-04-21T02:16:13.911Z,5.00
2023-04-21T02:21:15.467Z,4.96
2023-04-21T02:26:17.887Z,4.96
2023-04-21T02:31:18.744Z,4.95
2023-04-21T02:36:19.358Z,4.89
2023-04-21T02:41:21.286Z,4.87
2023-04-21T02:46:21.865Z,4.90
2023-04-21T02:51:23.562Z,4.83
2023-04-21T02:56:25.670Z,4.78
2023-04-21T03:01:26.355Z,4.69
2023-04-21T03:06:28.245Z,4.66
2023-04-21T03:11:30.208Z,4.63
2023-04-21T03:16:30.793Z,4.58
2023-04-21T03:21:31.869Z,4.52
2023-04-21T03:26:33.998Z,4.47
2023-04-21T03:31:34.613Z,4.41
2023-04-21T03:36:35.238Z,4.37
2023-04-21T03:41:37.269Z,4.35
2023-04-21T03:46:38.008Z,4.29
2023-04-21T03:51:38.614Z,4.25
2023-04-21T03:56:40.492Z,4.24
2023-04-21T04:01:42.267Z,4.17
2023-04-21T04:06:42.907Z,4.31
2023-04-21T04:11:44.809Z,4.61
2023-04-21T04:16:45.798Z,4.90
2023-04-21T04:21:48.848Z,4.62
2023-04-21T04:26:51.219Z,4.39
2023-04-21T04:31:52.164Z,4.34
2023-04-21T04:36:52.722Z,4.37
2023-04-21T04:41:54.603Z,4.40
2023-04-21T04:46:55.316Z,4.44
2023-04-21T04:51:56.133Z,4.48
2023-04-21T04:56:58.702Z,4.52
2023-04-21T05:01:59.325Z,4.62
2023-04-21T05:06:59.962Z,4.68
2023-04-21T05:12:02.470Z,4.87
2023-04-21T05:17:03.206Z,4.97
2023-04-21T05:22:06.455Z,5.01
2023-04-21T05:27:08.375Z,5.18
2023-04-21T05:32:09.192Z,5.28
2023-04-21T05:37:11.501Z,5.38
2023-04-21T05:42:13.439Z,5.49
2023-04-21T05:47:14.044Z,5.66
2023-04-21T05:52:14.621Z,5.81
2023-04-21T05:57:17.770Z,5.93
2023-04-21T06:02:18.708Z,6.10
2023-04-21T06:07:19.686Z,6.25
2023-04-21T06:12:21.575Z,6.36
2023-04-21T06:17:22.480Z,6.57
2023-04-21T06:22:23.358Z,6.70
2023-04-21T06:27:25.278Z,6.91
2023-04-21T06:32:25.972Z,7.07
2023-04-21T06:37:26.787Z,7.26
2023-04-21T06:42:28.725Z,7.48
2023-04-21T06:47:29.310Z,7.67
2023-04-21T06:52:29.970Z,7.90
2023-04-21T06:57:31.860Z,8.09
2023-04-21T07:02:32.614Z,8.33
2023-04-21T07:07:33.221Z,8.58
2023-04-21T07:12:35.099Z,8.84
2023-04-21T07:17:35.918Z,9.11
2023-04-21T07:22:37.005Z,9.36
2023-04-21T07:27:39.390Z,9.55
2023-04-21T07:32:40.083Z,9.87
2023-04-21T07:37:41.095Z,10.11
2023-04-21T07:42:43.131Z,10.32
2023-04-21T07:47:43.800Z,10.56
2023-04-21T07:52:44.506Z,10.90
2023-04-21T07:57:46.502Z,11.17
2023-04-21T08:02:47.259Z,11.50
2023-04-21T08:07:48.124Z,11.86
2023-04-21T08:12:50.094Z,12.21
2023-04-21T08:17:50.692Z,12.58
2023-04-21T08:22:51.413Z,13.04
2023-04-21T08:27:53.385Z,13.62
2023-04-21T08:32:54.015Z,14.08
2023-04-21T08:37:54.680Z,14.54
2023-04-21T08:42:59.255Z,15.00
2023-04-21T08:48:01.405Z,15.52
2023-04-21T08:53:02.084Z,15.59
2023-04-21T08:58:06.836Z,15.74
2023-04-21T09:03:19.241Z,16.11
2023-04-21T09:08:27.994Z,16.17
2023-04-21T09:13:34.358Z,16.41
2023-04-21T09:18:36.206Z,16.62
2023-04-21T09:23:44.455Z,16.81
2023-04-21T09:28:47.750Z,16.89
2023-04-21T09:39:17.793Z,17.21
2023-04-21T09:44:21.480Z,17.61
2023-04-21T09:49:24.188Z,17.74
2023-04-21T09:54:30.550Z,18.31
2023-04-21T09:59:36.595Z,18.71
2023-04-21T10:04:38.891Z,19.01
2023-04-21T10:09:45.896Z,19.23
2023-04-21T10:14:51.186Z,19.18
2023-04-21T10:19:53.550Z,19.18
2023-04-21T10:24:56.678Z,19.20
2023-04-21T10:29:59.564Z,19.16
2023-04-21T10:35:00.120Z,19.11
2023-04-21T10:40:00.713Z,19.11
2023-04-21T10:45:08.357Z,19.36
2023-04-21T10:50:14.879Z,19.43
2023-04-21T10:55:17.019Z,19.46
2023-04-21T11:00:21.712Z,19.87
2023-04-21T11:05:28.854Z,19.84
2023-04-21T11:10:29.472Z,20.08
2023-04-21T11:15:32.069Z,20.23
2023-04-21T11:20:32.767Z,20.55
2023-04-21T11:25:33.601Z,20.80
2023-04-21T11:30:36.125Z,20.87
2023-04-21T11:35:41.683Z,20.93
2023-04-21T11:40:47.503Z,20.78
2023-04-21T11:45:51.668Z,20.70
2023-04-21T11:50:52.283Z,20.63
2023-04-21T11:55:53.965Z,20.64
2023-04-21T12:00:56.173Z,20.86
2023-04-21T12:05:57.651Z,20.28
2023-04-21T12:10:59.269Z,20.68
2023-04-21T12:16:04.119Z,20.44
2023-04-21T12:21:05.314Z,20.68
2023-04-21T12:26:06.101Z,20.92
2023-04-21T12:31:08.096Z,20.83
2023-04-21T12:36:13.622Z,21.22
2023-04-21T12:41:27.426Z,21.21
2023-04-21T12:46:29.645Z,21.44
2023-04-21T12:51:31.550Z,21.54
2023-04-21T12:56:32.143Z,21.74
2023-04-21T13:01:34.215Z,21.78
2023-04-21T13:06:34.889Z,21.92
2023-04-21T13:11:35.592Z,22.43
2023-04-21T13:16:37.678Z,22.58
2023-04-21T13:21:38.542Z,22.52
2023-04-21T13:26:39.183Z,22.80
2023-04-21T13:31:41.340Z,22.92
2023-04-21T13:36:42.254Z,22.24
2023-04-21T13:41:42.989Z,22.09
2023-04-21T13:46:45.164Z,22.65
2023-04-21T13:51:45.882Z,22.82
2023-04-21T13:56:46.599Z,22.89
2023-04-21T14:01:48.799Z,22.38
2023-04-21T14:06:49.870Z,22.04
2023-04-21T14:11:51.112Z,22.09
2023-04-21T14:16:53.200Z,21.44
2023-04-21T14:21:54.017Z,20.93
2023-04-21T14:26:54.714Z,20.37
2023-04-21T14:31:58.588Z,20.21
2023-04-21T14:37:00.513Z,19.99
2023-04-21T14:42:01.872Z,20.02
2023-04-21T14:47:09.807Z,19.92
2023-04-21T14:52:11.562Z,20.19
2023-04-21T14:57:20.686Z,20.98
2023-04-21T15:02:23.920Z,21.01
2023-04-21T15:07:25.114Z,20.84
2023-04-21T15:12:26.265Z,20.42
2023-04-21T15:17:28.384Z,20.39
2023-04-21T15:22:29.207Z,20.52
2023-04-21T15:27:30.233Z,20.40
2023-04-21T15:32:32.375Z,21.28
2023-04-21T15:37:33.169Z,21.22
2023-04-21T15:42:33.864Z,20.70
2023-04-21T15:47:35.929Z,20.53
2023-04-21T15:52:37.770Z,20.31
2023-04-21T15:57:38.788Z,20.45
2023-04-21T16:02:41.132Z,20.14
2023-04-21T16:07:43.396Z,20.24
2023-04-21T16:12:45.472Z,20.71
2023-04-21T16:17:48.847Z,20.36
2023-04-21T16:22:50.120Z,19.66
2023-04-21T16:27:50.856Z,19.76
2023-04-21T16:32:52.862Z,19.66
2023-04-21T16:37:53.620Z,20.15
2023-04-21T16:42:54.387Z,20.86
2023-04-21T16:47:56.543Z,21.64
2023-04-21T16:52:57.425Z,21.31
2023-04-21T16:57:58.112Z,21.93
2023-04-21T17:03:00.324Z,22.18
2023-04-21T17:08:01.271Z,22.14
2023-04-21T17:13:02.031Z,22.70
2023-04-21T17:18:04.201Z,22.02
2023-04-21T17:23:05.059Z,21.87
2023-04-21T17:28:06.229Z,21.13
2023-04-21T17:33:15.877Z,20.65
2023-04-21T17:38:18.087Z,20.35
2023-04-21T17:43:18.756Z,19.50
2023-04-21T17:48:21.019Z,18.57
2023-04-21T17:53:21.725Z,17.87
2023-04-21T17:58:22.608Z,17.40
2023-04-21T18:03:24.852Z,17.10
2023-04-21T18:08:26.415Z,16.66
2023-04-21T18:13:27.133Z,16.45
2023-04-21T18:18:29.869Z,16.20
2023-04-21T18:23:30.514Z,16.02
2023-04-21T18:28:32.016Z,15.77
2023-04-21T18:33:34.051Z,15.58
2023-04-21T18:38:34.778Z,15.43
2023-04-21T18:43:35.560Z,15.19
2023-04-21T18:48:37.572Z,15.05
2023-04-21T18:53:38.231Z,14.96
2023-04-21T18:58:38.957Z,14.85
2023-04-21T19:03:41.183Z,14.76
2023-04-21T19:08:43.128Z,14.65
2023-04-21T19:13:44.024Z,14.42
2023-04-21T19:18:47.326Z,14.29
2023-04-21T19:23:48.308Z,14.08
2023-04-21T19:28:49.254Z,13.88
2023-04-21T19:33:52.439Z,13.81
2023-04-21T19:38:53.159Z,13.63
2023-04-21T19:43:53.861Z,13.52
2023-04-21T19:48:55.886Z,13.52
2023-04-21T19:54:10.089Z,13.48
2023-04-21T19:59:12.368Z,13.36
2023-04-21T20:04:14.553Z,13.38
2023-04-21T20:09:16.082Z,13.22
2023-04-21T20:14:18.335Z,13.15
2023-04-21T20:19:23.018Z,13.18
2023-04-21T20:24:23.985Z,13.06
2023-04-21T20:29:24.698Z,13.08
2023-04-21T20:34:26.781Z,12.91
2023-04-21T20:39:27.448Z,12.85
2023-04-21T20:44:31.409Z,12.72
2023-04-21T20:49:33.510Z,12.62
2023-04-21T20:54:34.830Z,12.51
2023-04-21T20:59:36.023Z,12.35
2023-04-21T21:04:38.261Z,12.31
2023-04-21T21:09:39.943Z,12.20
2023-04-21T21:14:41.080Z,12.00
2023-04-21T21:19:43.129Z,12.04
2023-04-21T21:24:43.991Z,11.87
2023-04-21T21:29:44.710Z,11.84
2023-04-21T21:34:46.725Z,11.69
2023-04-21T21:39:47.361Z,11.51
2023-04-21T21:44:47.999Z,11.55
2023-04-21T21:49:54.704Z,11.40
2023-04-21T21:54:56.889Z,11.28
2023-04-21T21:59:57.600Z,11.30
2023-04-21T22:04:59.805Z,11.15
2023-04-21T22:10:00.591Z,11.07
2023-04-21T22:15:01.235Z,10.99
2023-04-21T22:20:08.162Z,10.95
2023-04-21T22:25:10.835Z,10.80
2023-04-21T22:30:12.332Z,10.68
2023-04-21T22:35:14.427Z,10.70
2023-04-21T22:40:15.198Z,10.59
2023-04-21T22:45:15.878Z,10.49
2023-04-21T22:50:17.869Z,10.32
2023-04-21T22:55:18.790Z,10.28
2023-04-21T23:00:19.450Z,10.28
2023-04-21T23:05:21.417Z,10.22
2023-04-21T23:10:22.247Z,10.11
2023-04-21T23:15:22.963Z,10.02
2023-04-21T23:20:25.014Z,9.94
2023-04-21T23:25:25.764Z,9.81
2023-04-21T23:30:26.443Z,9.66
2023-04-21T23:35:28.682Z,9.53
2023-04-21T23:40:29.573Z,9.50
2023-04-21T23:45:30.389Z,9.48
2023-04-21T23:50:32.525Z,9.49
2023-04-21T23:55:33.239Z,9.32
